sensor_id;sensor_type;location;lat;lon;timestamp;temperature;humidity
6486;DHT22;3276;48.490;9.222;2024-01-30T00:01:23;2.40;10.60
6486;DHT22;3276;48.490;9.222;2024-01-30T00:03:49;2.40;10.70
6486;DHT22;3276;48.490;9.222;2024-01-30T00:06:18;2.30;11.70
6486;DHT22;3276;48.490;9.222;2024-01-30T00:08:44;2.20;12.40
6486;DHT22;3276;48.490;9.222;2024-01-30T00:11:11;2.20;13.00
6486;DHT22;3276;48.490;9.222;2024-01-30T00:13:37;2.20;13.10
6486;DHT22;3276;48.490;9.222;2024-01-30T00:16:03;2.20;13.30
6486;DHT22;3276;48.490;9.222;2024-01-30T00:18:29;2.10;13.50
6486;DHT22;3276;48.490;9.222;2024-01-30T00:20:54;2.10;14.00
6486;DHT22;3276;48.490;9.222;2024-01-30T00:23:20;2.10;14.10
6486;DHT22;3276;48.490;9.222;2024-01-30T00:25:45;2.00;14.70
6486;DHT22;3276;48.490;9.222;2024-01-30T00:28:11;2.00;15.40
6486;DHT22;3276;48.490;9.222;2024-01-30T00:30:36;2.00;15.60
6486;DHT22;3276;48.490;9.222;2024-01-30T00:33:02;2.00;15.50
6486;DHT22;3276;48.490;9.222;2024-01-30T00:35:27;2.00;15.60
6486;DHT22;3276;48.490;9.222;2024-01-30T00:37:54;2.00;16.40
6486;DHT22;3276;48.490;9.222;2024-01-30T00:40:20;2.00;16.70
6486;DHT22;3276;48.490;9.222;2024-01-30T00:42:45;2.00;16.80
6486;DHT22;3276;48.490;9.222;2024-01-30T00:45:17;2.00;16.40
6486;DHT22;3276;48.490;9.222;2024-01-30T00:47:43;2.00;16.30
6486;DHT22;3276;48.490;9.222;2024-01-30T00:50:09;2.10;16.70
6486;DHT22;3276;48.490;9.222;2024-01-30T00:52:35;2.10;15.80
6486;DHT22;3276;48.490;9.222;2024-01-30T00:55:01;2.10;16.40
6486;DHT22;3276;48.490;9.222;2024-01-30T00:57:28;2.20;15.20
6486;DHT22;3276;48.490;9.222;2024-01-30T00:59:53;2.20;14.90
6486;DHT22;3276;48.490;9.222;2024-01-30T01:02:19;2.10;15.40
6486;DHT22;3276;48.490;9.222;2024-01-30T01:04:44;2.10;15.40
6486;DHT22;3276;48.490;9.222;2024-01-30T01:07:11;2.00;14.00
6486;DHT22;3276;48.490;9.222;2024-01-30T01:09:36;2.00;14.40
6486;DHT22;3276;48.490;9.222;2024-01-30T01:12:02;2.00;14.30
6486;DHT22;3276;48.490;9.222;2024-01-30T01:14:28;2.00;14.00
6486;DHT22;3276;48.490;9.222;2024-01-30T01:16:53;1.90;14.50
6486;DHT22;3276;48.490;9.222;2024-01-30T01:19:19;1.80;15.70
6486;DHT22;3276;48.490;9.222;2024-01-30T01:21:44;1.80;16.10
6486;DHT22;3276;48.490;9.222;2024-01-30T01:24:10;1.80;16.40
6486;DHT22;3276;48.490;9.222;2024-01-30T01:26:36;1.80;16.30
6486;DHT22;3276;48.490;9.222;2024-01-30T01:41:13;1.70;17.30
6486;DHT22;3276;48.490;9.222;2024-01-30T01:43:39;1.80;18.00
6486;DHT22;3276;48.490;9.222;2024-01-30T01:46:06;1.80;17.40
6486;DHT22;3276;48.490;9.222;2024-01-30T01:48:32;1.80;16.80
6486;DHT22;3276;48.490;9.222;2024-01-30T01:50:58;1.80;17.00
6486;DHT22;3276;48.490;9.222;2024-01-30T01:53:24;1.80;16.50
6486;DHT22;3276;48.490;9.222;2024-01-30T01:55:51;1.80;16.70
6486;DHT22;3276;48.490;9.222;2024-01-30T01:58:19;1.80;16.90
6486;DHT22;3276;48.490;9.222;2024-01-30T02:00:46;1.80;16.70
6486;DHT22;3276;48.490;9.222;2024-01-30T02:03:13;1.80;16.80
6486;DHT22;3276;48.490;9.222;2024-01-30T02:05:41;1.80;17.00
6486;DHT22;3276;48.490;9.222;2024-01-30T02:08:07;1.80;16.10
6486;DHT22;3276;48.490;9.222;2024-01-30T02:10:34;1.80;16.70
6486;DHT22;3276;48.490;9.222;2024-01-30T02:12:59;1.80;16.50
6486;DHT22;3276;48.490;9.222;2024-01-30T02:15:25;1.70;16.70
6486;DHT22;3276;48.490;9.222;2024-01-30T02:17:50;1.70;16.70
6486;DHT22;3276;48.490;9.222;2024-01-30T02:20:16;1.70;16.80
6486;DHT22;3276;48.490;9.222;2024-01-30T02:22:42;1.70;16.70
6486;DHT22;3276;48.490;9.222;2024-01-30T02:25:08;1.70;16.30
6486;DHT22;3276;48.490;9.222;2024-01-30T02:27:34;1.70;16.90
6486;DHT22;3276;48.490;9.222;2024-01-30T02:29:59;1.70;16.70
6486;DHT22;3276;48.490;9.222;2024-01-30T02:32:25;1.60;16.80
6486;DHT22;3276;48.490;9.222;2024-01-30T02:34:50;1.60;16.70
6486;DHT22;3276;48.490;9.222;2024-01-30T02:37:16;1.60;17.10
6486;DHT22;3276;48.490;9.222;2024-01-30T02:39:42;1.60;17.10
6486;DHT22;3276;48.490;9.222;2024-01-30T02:42:07;1.60;16.60
6486;DHT22;3276;48.490;9.222;2024-01-30T02:44:33;1.60;17.20
6486;DHT22;3276;48.490;9.222;2024-01-30T02:46:58;1.60;17.20
6486;DHT22;3276;48.490;9.222;2024-01-30T02:49:24;1.60;16.50
6486;DHT22;3276;48.490;9.222;2024-01-30T02:51:51;1.60;16.20
6486;DHT22;3276;48.490;9.222;2024-01-30T02:54:16;1.50;16.20
6486;DHT22;3276;48.490;9.222;2024-01-30T02:56:42;1.40;16.70
6486;DHT22;3276;48.490;9.222;2024-01-30T02:59:07;1.40;17.00
6486;DHT22;3276;48.490;9.222;2024-01-30T03:01:33;1.30;17.60
6486;DHT22;3276;48.490;9.222;2024-01-30T03:03:58;1.30;17.80
6486;DHT22;3276;48.490;9.222;2024-01-30T03:06:24;1.30;17.80
6486;DHT22;3276;48.490;9.222;2024-01-30T03:08:49;1.20;17.70
6486;DHT22;3276;48.490;9.222;2024-01-30T03:11:15;1.20;18.90
6486;DHT22;3276;48.490;9.222;2024-01-30T03:13:40;1.20;18.90
6486;DHT22;3276;48.490;9.222;2024-01-30T03:16:06;1.20;19.10
6486;DHT22;3276;48.490;9.222;2024-01-30T03:18:31;1.30;18.90
6486;DHT22;3276;48.490;9.222;2024-01-30T03:20:57;1.30;18.50
6486;DHT22;3276;48.490;9.222;2024-01-30T03:23:22;1.40;18.00
6486;DHT22;3276;48.490;9.222;2024-01-30T03:25:48;1.40;17.80
6486;DHT22;3276;48.490;9.222;2024-01-30T03:28:13;1.50;17.90
6486;DHT22;3276;48.490;9.222;2024-01-30T03:30:39;1.50;17.40
6486;DHT22;3276;48.490;9.222;2024-01-30T03:33:05;1.40;16.80
6486;DHT22;3276;48.490;9.222;2024-01-30T03:35:30;1.40;16.90
6486;DHT22;3276;48.490;9.222;2024-01-30T03:37:56;1.40;16.40
6486;DHT22;3276;48.490;9.222;2024-01-30T03:40:21;1.30;16.80
6486;DHT22;3276;48.490;9.222;2024-01-30T03:42:46;1.30;16.90
6486;DHT22;3276;48.490;9.222;2024-01-30T03:45:12;1.30;16.70
6486;DHT22;3276;48.490;9.222;2024-01-30T03:47:37;1.20;17.60
6486;DHT22;3276;48.490;9.222;2024-01-30T03:50:03;1.20;16.70
6486;DHT22;3276;48.490;9.222;2024-01-30T03:52:30;1.20;16.60
6486;DHT22;3276;48.490;9.222;2024-01-30T03:54:55;1.10;17.70
6486;DHT22;3276;48.490;9.222;2024-01-30T03:57:21;1.10;17.70
6486;DHT22;3276;48.490;9.222;2024-01-30T03:59:47;1.10;17.70
6486;DHT22;3276;48.490;9.222;2024-01-30T04:02:12;1.10;17.70
6486;DHT22;3276;48.490;9.222;2024-01-30T04:04:38;1.00;17.60
6486;DHT22;3276;48.490;9.222;2024-01-30T04:07:04;1.00;18.10
6486;DHT22;3276;48.490;9.222;2024-01-30T04:09:29;1.00;17.60
6486;DHT22;3276;48.490;9.222;2024-01-30T04:11:55;0.90;18.40
6486;DHT22;3276;48.490;9.222;2024-01-30T04:14:20;0.90;18.70
6486;DHT22;3276;48.490;9.222;2024-01-30T04:16:46;0.90;19.60
6486;DHT22;3276;48.490;9.222;2024-01-30T04:19:11;0.90;18.90
6486;DHT22;3276;48.490;9.222;2024-01-30T04:21:37;0.90;20.30
6486;DHT22;3276;48.490;9.222;2024-01-30T04:24:02;0.90;19.60
6486;DHT22;3276;48.490;9.222;2024-01-30T04:28:54;0.70;21.00
6486;DHT22;3276;48.490;9.222;2024-01-30T04:31:19;0.70;21.50
6486;DHT22;3276;48.490;9.222;2024-01-30T04:33:45;0.70;21.60
6486;DHT22;3276;48.490;9.222;2024-01-30T04:36:10;0.70;22.70
6486;DHT22;3276;48.490;9.222;2024-01-30T04:38:37;0.60;22.60
6486;DHT22;3276;48.490;9.222;2024-01-30T04:41:03;0.60;23.40
6486;DHT22;3276;48.490;9.222;2024-01-30T04:43:29;0.60;23.20
6486;DHT22;3276;48.490;9.222;2024-01-30T04:45:55;0.60;22.80
6486;DHT22;3276;48.490;9.222;2024-01-30T04:48:21;0.60;23.00
6486;DHT22;3276;48.490;9.222;2024-01-30T04:50:46;0.60;22.90
6486;DHT22;3276;48.490;9.222;2024-01-30T04:53:12;0.60;22.80
6486;DHT22;3276;48.490;9.222;2024-01-30T04:55:37;0.50;22.50
6486;DHT22;3276;48.490;9.222;2024-01-30T04:58:03;0.50;23.00
6486;DHT22;3276;48.490;9.222;2024-01-30T05:00:28;0.50;23.40
6486;DHT22;3276;48.490;9.222;2024-01-30T05:02:57;0.50;23.00
6486;DHT22;3276;48.490;9.222;2024-01-30T05:05:22;0.50;23.10
6486;DHT22;3276;48.490;9.222;2024-01-30T05:07:48;0.60;22.80
6486;DHT22;3276;48.490;9.222;2024-01-30T05:10:14;0.60;21.70
6486;DHT22;3276;48.490;9.222;2024-01-30T05:12:40;0.60;21.50
6486;DHT22;3276;48.490;9.222;2024-01-30T05:15:05;0.60;22.30
6486;DHT22;3276;48.490;9.222;2024-01-30T05:17:31;0.60;22.70
6486;DHT22;3276;48.490;9.222;2024-01-30T05:19:57;0.60;22.30
6486;DHT22;3276;48.490;9.222;2024-01-30T05:22:23;0.70;22.00
6486;DHT22;3276;48.490;9.222;2024-01-30T05:24:48;0.70;21.60
6486;DHT22;3276;48.490;9.222;2024-01-30T05:27:14;0.70;20.70
6486;DHT22;3276;48.490;9.222;2024-01-30T05:29:40;0.80;21.30
6486;DHT22;3276;48.490;9.222;2024-01-30T05:32:06;0.80;20.80
6486;DHT22;3276;48.490;9.222;2024-01-30T05:34:32;0.80;19.50
6486;DHT22;3276;48.490;9.222;2024-01-30T05:36:58;0.80;19.40
6486;DHT22;3276;48.490;9.222;2024-01-30T05:39:23;0.80;19.10
6486;DHT22;3276;48.490;9.222;2024-01-30T05:41:49;0.70;18.70
6486;DHT22;3276;48.490;9.222;2024-01-30T05:44:14;0.70;19.10
6486;DHT22;3276;48.490;9.222;2024-01-30T05:46:40;0.70;18.70
6486;DHT22;3276;48.490;9.222;2024-01-30T05:49:05;0.70;19.40
6486;DHT22;3276;48.490;9.222;2024-01-30T05:51:31;0.60;19.40
6486;DHT22;3276;48.490;9.222;2024-01-30T05:53:57;0.60;19.50
6486;DHT22;3276;48.490;9.222;2024-01-30T05:56:22;0.60;19.80
6486;DHT22;3276;48.490;9.222;2024-01-30T05:58:48;0.60;19.60
6486;DHT22;3276;48.490;9.222;2024-01-30T06:01:15;0.60;19.20
6486;DHT22;3276;48.490;9.222;2024-01-30T06:03:41;0.60;19.40
6486;DHT22;3276;48.490;9.222;2024-01-30T06:06:08;0.70;19.50
6486;DHT22;3276;48.490;9.222;2024-01-30T06:08:34;0.70;19.30
6486;DHT22;3276;48.490;9.222;2024-01-30T06:11:00;0.70;18.60
6486;DHT22;3276;48.490;9.222;2024-01-30T06:13:26;0.80;18.00
6486;DHT22;3276;48.490;9.222;2024-01-30T06:15:52;0.80;17.50
6486;DHT22;3276;48.490;9.222;2024-01-30T06:18:17;0.90;16.70
6486;DHT22;3276;48.490;9.222;2024-01-30T06:20:43;0.90;17.10
6486;DHT22;3276;48.490;9.222;2024-01-30T06:23:08;0.90;15.80
6486;DHT22;3276;48.490;9.222;2024-01-30T06:25:34;1.00;16.00
6486;DHT22;3276;48.490;9.222;2024-01-30T06:27:59;1.00;15.30
6486;DHT22;3276;48.490;9.222;2024-01-30T06:30:25;1.10;14.90
6486;DHT22;3276;48.490;9.222;2024-01-30T06:32:50;1.10;14.70
6486;DHT22;3276;48.490;9.222;2024-01-30T06:35:16;1.10;14.20
6486;DHT22;3276;48.490;9.222;2024-01-30T06:37:42;1.00;13.70
6486;DHT22;3276;48.490;9.222;2024-01-30T06:40:08;0.90;15.00
6486;DHT22;3276;48.490;9.222;2024-01-30T06:42:34;0.90;15.20
6486;DHT22;3276;48.490;9.222;2024-01-30T06:45:00;0.90;16.20
6486;DHT22;3276;48.490;9.222;2024-01-30T06:47:25;0.90;17.30
6486;DHT22;3276;48.490;9.222;2024-01-30T06:49:51;0.90;17.50
6486;DHT22;3276;48.490;9.222;2024-01-30T06:52:16;0.80;17.50
6486;DHT22;3276;48.490;9.222;2024-01-30T06:54:42;0.80;18.30
6486;DHT22;3276;48.490;9.222;2024-01-30T06:57:07;0.80;19.80
6486;DHT22;3276;48.490;9.222;2024-01-30T06:59:37;0.80;19.40
6486;DHT22;3276;48.490;9.222;2024-01-30T07:02:03;0.80;20.50
6486;DHT22;3276;48.490;9.222;2024-01-30T07:04:28;0.80;20.00
6486;DHT22;3276;48.490;9.222;2024-01-30T07:06:54;0.80;20.20
6486;DHT22;3276;48.490;9.222;2024-01-30T07:09:19;0.80;18.60
6486;DHT22;3276;48.490;9.222;2024-01-30T07:11:45;0.90;17.50
6486;DHT22;3276;48.490;9.222;2024-01-30T07:14:10;0.90;17.00
6486;DHT22;3276;48.490;9.222;2024-01-30T07:16:36;0.90;16.90
6486;DHT22;3276;48.490;9.222;2024-01-30T07:19:02;1.00;15.90
6486;DHT22;3276;48.490;9.222;2024-01-30T07:21:27;1.00;15.50
6486;DHT22;3276;48.490;9.222;2024-01-30T07:23:54;1.10;14.80
6486;DHT22;3276;48.490;9.222;2024-01-30T07:26:20;1.20;14.20
6486;DHT22;3276;48.490;9.222;2024-01-30T07:28:46;1.30;13.50
6486;DHT22;3276;48.490;9.222;2024-01-30T07:31:11;1.50;11.90
6486;DHT22;3276;48.490;9.222;2024-01-30T07:33:37;1.60;11.00
6486;DHT22;3276;48.490;9.222;2024-01-30T07:36:03;1.60;10.10
6486;DHT22;3276;48.490;9.222;2024-01-30T07:38:31;1.70;9.50
6486;DHT22;3276;48.490;9.222;2024-01-30T07:40:57;1.70;9.50
6486;DHT22;3276;48.490;9.222;2024-01-30T07:43:22;1.80;9.60
6486;DHT22;3276;48.490;9.222;2024-01-30T07:45:48;1.90;9.10
6486;DHT22;3276;48.490;9.222;2024-01-30T07:48:13;2.00;8.10
6486;DHT22;3276;48.490;9.222;2024-01-30T07:50:39;2.20;7.10
6486;DHT22;3276;48.490;9.222;2024-01-30T07:53:05;2.30;5.80
6486;DHT22;3276;48.490;9.222;2024-01-30T07:55:30;2.40;5.60
6486;DHT22;3276;48.490;9.222;2024-01-30T07:57:57;2.40;5.50
6486;DHT22;3276;48.490;9.222;2024-01-30T08:00:24;2.50;5.70
6486;DHT22;3276;48.490;9.222;2024-01-30T08:02:49;2.60;4.30
6486;DHT22;3276;48.490;9.222;2024-01-30T08:05:15;2.70;4.10
6486;DHT22;3276;48.490;9.222;2024-01-30T08:07:41;2.80;3.90
6486;DHT22;3276;48.490;9.222;2024-01-30T08:10:11;2.90;3.10
6486;DHT22;3276;48.490;9.222;2024-01-30T08:12:38;3.00;2.20
6486;DHT22;3276;48.490;9.222;2024-01-30T08:15:04;3.10;1.90
6486;DHT22;3276;48.490;9.222;2024-01-30T08:17:30;3.20;1.60
6486;DHT22;3276;48.490;9.222;2024-01-30T08:19:55;3.30;1.20
6486;DHT22;3276;48.490;9.222;2024-01-30T08:22:21;3.50;1.00
6486;DHT22;3276;48.490;9.222;2024-01-30T08:24:46;3.60;1.00
6486;DHT22;3276;48.490;9.222;2024-01-30T08:27:12;3.70;1.00
6486;DHT22;3276;48.490;9.222;2024-01-30T08:29:37;3.90;1.00
6486;DHT22;3276;48.490;9.222;2024-01-30T08:32:05;4.10;1.00
6486;DHT22;3276;48.490;9.222;2024-01-30T08:34:31;4.20;1.00
6486;DHT22;3276;48.490;9.222;2024-01-30T08:36:56;4.40;1.00
6486;DHT22;3276;48.490;9.222;2024-01-30T08:39:22;4.50;1.00
6486;DHT22;3276;48.490;9.222;2024-01-30T08:41:47;4.60;1.00
6486;DHT22;3276;48.490;9.222;2024-01-30T08:44:13;4.80;1.00
6486;DHT22;3276;48.490;9.222;2024-01-30T08:46:38;4.90;1.00
6486;DHT22;3276;48.490;9.222;2024-01-30T08:49:04;5.10;1.00
6486;DHT22;3276;48.490;9.222;2024-01-30T08:51:30;5.30;1.00
6486;DHT22;3276;48.490;9.222;2024-01-30T08:53:56;5.50;1.00
6486;DHT22;3276;48.490;9.222;2024-01-30T08:56:21;5.60;1.00
6486;DHT22;3276;48.490;9.222;2024-01-30T08:58:47;5.80;1.00
6486;DHT22;3276;48.490;9.222;2024-01-30T09:01:12;6.00;1.00
6486;DHT22;3276;48.490;9.222;2024-01-30T09:03:38;6.00;1.00
6486;DHT22;3276;48.490;9.222;2024-01-30T09:06:12;6.10;1.00
6486;DHT22;3276;48.490;9.222;2024-01-30T09:08:38;6.10;1.00
6486;DHT22;3276;48.490;9.222;2024-01-30T09:11:14;6.20;1.00
6486;DHT22;3276;48.490;9.222;2024-01-30T09:13:40;6.30;1.00
6486;DHT22;3276;48.490;9.222;2024-01-30T09:16:06;6.30;1.00
6486;DHT22;3276;48.490;9.222;2024-01-30T09:18:32;6.30;1.00
6486;DHT22;3276;48.490;9.222;2024-01-30T09:20:57;6.40;1.00
6486;DHT22;3276;48.490;9.222;2024-01-30T09:23:23;6.50;1.00
6486;DHT22;3276;48.490;9.222;2024-01-30T09:25:50;6.50;1.00
6486;DHT22;3276;48.490;9.222;2024-01-30T09:28:16;6.40;1.00
6486;DHT22;3276;48.490;9.222;2024-01-30T09:30:42;6.50;1.00
6486;DHT22;3276;48.490;9.222;2024-01-30T09:33:08;6.30;1.00
6486;DHT22;3276;48.490;9.222;2024-01-30T09:35:33;6.40;1.00
6486;DHT22;3276;48.490;9.222;2024-01-30T09:37:59;6.50;1.00
6486;DHT22;3276;48.490;9.222;2024-01-30T09:40:25;6.60;1.00
6486;DHT22;3276;48.490;9.222;2024-01-30T09:42:51;6.50;1.00
6486;DHT22;3276;48.490;9.222;2024-01-30T09:45:23;6.40;1.00
6486;DHT22;3276;48.490;9.222;2024-01-30T09:47:49;6.50;1.00
6486;DHT22;3276;48.490;9.222;2024-01-30T09:50:15;6.70;1.00
6486;DHT22;3276;48.490;9.222;2024-01-30T09:52:41;6.80;1.00
6486;DHT22;3276;48.490;9.222;2024-01-30T09:55:08;7.10;1.00
6486;DHT22;3276;48.490;9.222;2024-01-30T09:57:36;7.20;1.00
6486;DHT22;3276;48.490;9.222;2024-01-30T10:00:03;7.40;1.00
6486;DHT22;3276;48.490;9.222;2024-01-30T10:02:31;7.60;1.00
6486;DHT22;3276;48.490;9.222;2024-01-30T10:04:57;7.70;1.00
6486;DHT22;3276;48.490;9.222;2024-01-30T10:07:22;8.00;1.00
6486;DHT22;3276;48.490;9.222;2024-01-30T10:09:48;8.20;1.00
6486;DHT22;3276;48.490;9.222;2024-01-30T10:12:15;8.40;1.00
6486;DHT22;3276;48.490;9.222;2024-01-30T10:14:41;8.50;1.00
6486;DHT22;3276;48.490;9.222;2024-01-30T10:17:11;8.70;1.00
6486;DHT22;3276;48.490;9.222;2024-01-30T10:19:41;8.90;1.00
6486;DHT22;3276;48.490;9.222;2024-01-30T10:22:07;9.10;1.00
6486;DHT22;3276;48.490;9.222;2024-01-30T10:24:35;9.20;1.00
6486;DHT22;3276;48.490;9.222;2024-01-30T10:27:01;9.10;1.00
6486;DHT22;3276;48.490;9.222;2024-01-30T10:29:27;9.20;1.00
6486;DHT22;3276;48.490;9.222;2024-01-30T10:32:03;9.40;1.00
6486;DHT22;3276;48.490;9.222;2024-01-30T10:34:29;9.50;1.00
6486;DHT22;3276;48.490;9.222;2024-01-30T10:37:15;9.80;1.00
6486;DHT22;3276;48.490;9.222;2024-01-30T10:39:43;10.10;1.00
6486;DHT22;3276;48.490;9.222;2024-01-30T10:42:19;10.30;1.00
6486;DHT22;3276;48.490;9.222;2024-01-30T10:45:11;10.50;1.00
6486;DHT22;3276;48.490;9.222;2024-01-30T10:47:43;10.70;1.00
6486;DHT22;3276;48.490;9.222;2024-01-30T10:50:09;10.90;1.00
6486;DHT22;3276;48.490;9.222;2024-01-30T10:52:36;10.90;1.00
6486;DHT22;3276;48.490;9.222;2024-01-30T10:55:04;11.00;1.00
6486;DHT22;3276;48.490;9.222;2024-01-30T10:57:34;11.00;1.00
6486;DHT22;3276;48.490;9.222;2024-01-30T11:00:01;11.10;1.00
6486;DHT22;3276;48.490;9.222;2024-01-30T11:02:27;11.20;1.00
6486;DHT22;3276;48.490;9.222;2024-01-30T11:05:00;11.40;1.00
6486;DHT22;3276;48.490;9.222;2024-01-30T11:07:27;11.60;1.00
6486;DHT22;3276;48.490;9.222;2024-01-30T11:12:28;12.00;1.00
6486;DHT22;3276;48.490;9.222;2024-01-30T11:15:08;12.10;1.00
6486;DHT22;3276;48.490;9.222;2024-01-30T11:17:50;12.20;1.00
6486;DHT22;3276;48.490;9.222;2024-01-30T11:20:21;12.40;1.00
6486;DHT22;3276;48.490;9.222;2024-01-30T11:22:49;12.50;1.00
6486;DHT22;3276;48.490;9.222;2024-01-30T11:25:16;12.60;1.00
6486;DHT22;3276;48.490;9.222;2024-01-30T11:27:45;12.50;1.00
6486;DHT22;3276;48.490;9.222;2024-01-30T11:30:21;12.50;1.00
6486;DHT22;3276;48.490;9.222;2024-01-30T11:33:01;12.50;1.00
6486;DHT22;3276;48.490;9.222;2024-01-30T11:35:33;12.50;1.00
6486;DHT22;3276;48.490;9.222;2024-01-30T11:38:00;12.50;1.00
6486;DHT22;3276;48.490;9.222;2024-01-30T11:40:30;12.40;1.00
6486;DHT22;3276;48.490;9.222;2024-01-30T11:42:56;12.60;1.00
6486;DHT22;3276;48.490;9.222;2024-01-30T11:45:23;12.80;1.00
6486;DHT22;3276;48.490;9.222;2024-01-30T11:47:49;12.90;1.00
6486;DHT22;3276;48.490;9.222;2024-01-30T11:50:15;13.10;1.00
6486;DHT22;3276;48.490;9.222;2024-01-30T11:52:41;13.20;1.00
6486;DHT22;3276;48.490;9.222;2024-01-30T11:55:08;13.40;1.00
6486;DHT22;3276;48.490;9.222;2024-01-30T11:57:34;13.10;1.00
6486;DHT22;3276;48.490;9.222;2024-01-30T12:00:03;13.20;1.00
6486;DHT22;3276;48.490;9.222;2024-01-30T12:02:39;13.20;1.00
6486;DHT22;3276;48.490;9.222;2024-01-30T12:05:06;13.40;1.00
6486;DHT22;3276;48.490;9.222;2024-01-30T12:07:32;13.60;1.00
6486;DHT22;3276;48.490;9.222;2024-01-30T12:09:58;13.60;1.00
6486;DHT22;3276;48.490;9.222;2024-01-30T12:12:25;13.50;1.00
6486;DHT22;3276;48.490;9.222;2024-01-30T12:14:52;13.50;1.00
6486;DHT22;3276;48.490;9.222;2024-01-30T12:17:29;13.70;1.00
6486;DHT22;3276;48.490;9.222;2024-01-30T12:20:17;13.90;1.00
6486;DHT22;3276;48.490;9.222;2024-01-30T12:22:44;13.90;1.00
6486;DHT22;3276;48.490;9.222;2024-01-30T12:25:12;14.00;1.00
6486;DHT22;3276;48.490;9.222;2024-01-30T12:27:38;14.00;1.00
6486;DHT22;3276;48.490;9.222;2024-01-30T12:30:08;14.10;1.00
6486;DHT22;3276;48.490;9.222;2024-01-30T12:32:39;14.20;1.00
6486;DHT22;3276;48.490;9.222;2024-01-30T12:35:08;14.30;1.00
6486;DHT22;3276;48.490;9.222;2024-01-30T12:37:35;14.30;1.00
6486;DHT22;3276;48.490;9.222;2024-01-30T12:40:01;14.20;1.00
6486;DHT22;3276;48.490;9.222;2024-01-30T12:42:27;14.00;1.00
6486;DHT22;3276;48.490;9.222;2024-01-30T12:44:52;14.20;1.00
6486;DHT22;3276;48.490;9.222;2024-01-30T12:47:18;14.40;1.00
6486;DHT22;3276;48.490;9.222;2024-01-30T12:49:44;14.60;1.00
6486;DHT22;3276;48.490;9.222;2024-01-30T12:52:11;14.90;1.00
6486;DHT22;3276;48.490;9.222;2024-01-30T12:54:37;15.10;1.00
6486;DHT22;3276;48.490;9.222;2024-01-30T12:57:03;15.10;1.00
6486;DHT22;3276;48.490;9.222;2024-01-30T12:59:29;15.30;1.00
6486;DHT22;3276;48.490;9.222;2024-01-30T13:01:54;15.30;1.00
6486;DHT22;3276;48.490;9.222;2024-01-30T13:04:20;15.40;1.00
6486;DHT22;3276;48.490;9.222;2024-01-30T13:06:45;15.30;1.00
6486;DHT22;3276;48.490;9.222;2024-01-30T13:09:11;15.40;1.00
6486;DHT22;3276;48.490;9.222;2024-01-30T13:11:37;15.20;1.00
6486;DHT22;3276;48.490;9.222;2024-01-30T13:14:03;15.30;1.00
6486;DHT22;3276;48.490;9.222;2024-01-30T13:16:29;15.30;1.00
6486;DHT22;3276;48.490;9.222;2024-01-30T13:18:54;15.30;1.00
6486;DHT22;3276;48.490;9.222;2024-01-30T13:21:21;15.30;1.00
6486;DHT22;3276;48.490;9.222;2024-01-30T13:23:46;15.30;1.00
6486;DHT22;3276;48.490;9.222;2024-01-30T13:26:12;15.20;1.00
6486;DHT22;3276;48.490;9.222;2024-01-30T13:28:40;15.10;1.00
6486;DHT22;3276;48.490;9.222;2024-01-30T13:31:12;15.00;1.00
6486;DHT22;3276;48.490;9.222;2024-01-30T13:33:41;14.90;1.00
6486;DHT22;3276;48.490;9.222;2024-01-30T13:36:10;14.90;1.00
6486;DHT22;3276;48.490;9.222;2024-01-30T13:38:38;15.00;1.00
6486;DHT22;3276;48.490;9.222;2024-01-30T13:41:04;14.90;1.00
6486;DHT22;3276;48.490;9.222;2024-01-30T13:43:30;14.70;1.00
6486;DHT22;3276;48.490;9.222;2024-01-30T13:45:56;14.60;1.00
6486;DHT22;3276;48.490;9.222;2024-01-30T13:48:21;14.40;1.00
6486;DHT22;3276;48.490;9.222;2024-01-30T13:50:48;14.60;1.00
6486;DHT22;3276;48.490;9.222;2024-01-30T13:53:13;14.70;1.00
6486;DHT22;3276;48.490;9.222;2024-01-30T13:55:39;14.80;1.00
6486;DHT22;3276;48.490;9.222;2024-01-30T13:58:05;14.80;1.00
6486;DHT22;3276;48.490;9.222;2024-01-30T14:00:30;14.80;1.00
6486;DHT22;3276;48.490;9.222;2024-01-30T14:02:56;14.80;1.00
6486;DHT22;3276;48.490;9.222;2024-01-30T14:05:23;14.70;1.00
6486;DHT22;3276;48.490;9.222;2024-01-30T14:07:49;14.60;1.00
6486;DHT22;3276;48.490;9.222;2024-01-30T14:10:16;14.60;1.00
6486;DHT22;3276;48.490;9.222;2024-01-30T14:12:42;14.70;1.00
6486;DHT22;3276;48.490;9.222;2024-01-30T14:15:09;14.60;1.00
6486;DHT22;3276;48.490;9.222;2024-01-30T14:17:35;14.60;1.00
6486;DHT22;3276;48.490;9.222;2024-01-30T14:20:05;14.60;1.00
6486;DHT22;3276;48.490;9.222;2024-01-30T14:22:32;14.60;1.00
6486;DHT22;3276;48.490;9.222;2024-01-30T14:24:59;14.40;1.00
6486;DHT22;3276;48.490;9.222;2024-01-30T14:27:24;14.30;1.00
6486;DHT22;3276;48.490;9.222;2024-01-30T14:29:50;14.20;1.00
6486;DHT22;3276;48.490;9.222;2024-01-30T14:32:15;14.30;1.00
6486;DHT22;3276;48.490;9.222;2024-01-30T14:34:41;14.30;1.00
6486;DHT22;3276;48.490;9.222;2024-01-30T14:37:07;14.30;1.00
6486;DHT22;3276;48.490;9.222;2024-01-30T14:39:32;14.40;1.00
6486;DHT22;3276;48.490;9.222;2024-01-30T14:41:59;14.40;1.00
6486;DHT22;3276;48.490;9.222;2024-01-30T14:44:25;14.30;1.00
6486;DHT22;3276;48.490;9.222;2024-01-30T14:46:50;14.20;1.00
6486;DHT22;3276;48.490;9.222;2024-01-30T14:49:16;14.10;1.00
6486;DHT22;3276;48.490;9.222;2024-01-30T14:51:42;14.10;1.00
6486;DHT22;3276;48.490;9.222;2024-01-30T14:54:08;14.10;1.00
6486;DHT22;3276;48.490;9.222;2024-01-30T14:56:33;14.00;1.00
6486;DHT22;3276;48.490;9.222;2024-01-30T14:58:59;13.90;1.00
6486;DHT22;3276;48.490;9.222;2024-01-30T15:01:25;13.80;1.00
6486;DHT22;3276;48.490;9.222;2024-01-30T15:03:50;13.70;1.00
6486;DHT22;3276;48.490;9.222;2024-01-30T15:06:20;13.70;1.00
6486;DHT22;3276;48.490;9.222;2024-01-30T15:08:49;13.50;1.00
6486;DHT22;3276;48.490;9.222;2024-01-30T15:11:15;13.50;1.00
6486;DHT22;3276;48.490;9.222;2024-01-30T15:13:40;13.40;1.00
6486;DHT22;3276;48.490;9.222;2024-01-30T15:16:06;13.30;1.00
6486;DHT22;3276;48.490;9.222;2024-01-30T15:18:39;13.20;1.00
6486;DHT22;3276;48.490;9.222;2024-01-30T15:21:08;13.10;1.00
6486;DHT22;3276;48.490;9.222;2024-01-30T15:23:33;13.00;1.00
6486;DHT22;3276;48.490;9.222;2024-01-30T15:25:59;12.90;1.00
6486;DHT22;3276;48.490;9.222;2024-01-30T15:28:37;12.80;1.00
6486;DHT22;3276;48.490;9.222;2024-01-30T15:31:04;12.70;1.00
6486;DHT22;3276;48.490;9.222;2024-01-30T15:33:31;12.60;1.00
6486;DHT22;3276;48.490;9.222;2024-01-30T15:36:00;12.50;1.00
6486;DHT22;3276;48.490;9.222;2024-01-30T15:38:26;12.40;1.00
6486;DHT22;3276;48.490;9.222;2024-01-30T15:40:52;12.20;1.00
6486;DHT22;3276;48.490;9.222;2024-01-30T15:43:18;12.10;1.00
6486;DHT22;3276;48.490;9.222;2024-01-30T15:45:44;12.00;1.00
6486;DHT22;3276;48.490;9.222;2024-01-30T15:48:10;11.90;1.00
6486;DHT22;3276;48.490;9.222;2024-01-30T15:50:35;11.80;1.00
6486;DHT22;3276;48.490;9.222;2024-01-30T15:53:01;11.70;1.00
6486;DHT22;3276;48.490;9.222;2024-01-30T15:55:26;11.60;1.00
6486;DHT22;3276;48.490;9.222;2024-01-30T15:57:52;11.50;1.00
6486;DHT22;3276;48.490;9.222;2024-01-30T16:00:17;11.40;1.00
6486;DHT22;3276;48.490;9.222;2024-01-30T16:02:43;11.30;1.00
6486;DHT22;3276;48.490;9.222;2024-01-30T16:05:08;11.20;1.00
6486;DHT22;3276;48.490;9.222;2024-01-30T16:07:37;11.10;1.00
6486;DHT22;3276;48.490;9.222;2024-01-30T16:10:03;11.00;1.00
6486;DHT22;3276;48.490;9.222;2024-01-30T16:12:29;11.00;1.00
6486;DHT22;3276;48.490;9.222;2024-01-30T16:14:54;10.90;1.00
6486;DHT22;3276;48.490;9.222;2024-01-30T16:17:20;10.70;1.00
6486;DHT22;3276;48.490;9.222;2024-01-30T16:19:47;10.70;1.00
6486;DHT22;3276;48.490;9.222;2024-01-30T16:22:17;10.60;1.00
6486;DHT22;3276;48.490;9.222;2024-01-30T16:24:43;10.50;1.00
6486;DHT22;3276;48.490;9.222;2024-01-30T16:27:11;10.40;1.00
6486;DHT22;3276;48.490;9.222;2024-01-30T16:29:37;10.30;1.00
6486;DHT22;3276;48.490;9.222;2024-01-30T16:32:02;10.30;1.00
6486;DHT22;3276;48.490;9.222;2024-01-30T16:34:28;10.20;1.00